sensor_id;sensor_type;location;lat;lon;timestamp;P1;durP1;ratioP1;P2;durP2;ratioP2
50605;SDS011;36557;53.572;10.170;2022-09-09T00:00:18;896.83;;;814.65;;
50605;SDS011;36557;53.572;10.170;2022-09-09T00:02:55;852.75;;;778.40;;
50605;SDS011;36557;53.572;10.170;2022-09-09T00:08:43;852.30;;;777.03;;
50605;SDS011;36557;53.572;10.170;2022-09-09T00:11:12;827.10;;;751.65;;
50605;SDS011;36557;53.572;10.170;2022-09-09T00:13:46;804.80;;;737.08;;
50605;SDS011;36557;53.572;10.170;2022-09-09T00:16:20;837.30;;;760.28;;
50605;SDS011;36557;53.572;10.170;2022-09-09T00:19:04;821.85;;;751.40;;
50605;SDS011;36557;53.572;10.170;2022-09-09T00:22:06;871.17;;;791.67;;
50605;SDS011;36557;53.572;10.170;2022-09-09T00:32:24;766.75;;;698.10;;
50605;SDS011;36557;53.572;10.170;2022-09-09T00:34:55;851.50;;;769.95;;
50605;SDS011;36557;53.572;10.170;2022-09-09T00:37:26;806.88;;;735.53;;
50605;SDS011;36557;53.572;10.170;2022-09-09T00:39:54;833.15;;;761.60;;
50605;SDS011;36557;53.572;10.170;2022-09-09T00:42:25;853.30;;;775.00;;
50605;SDS011;36557;53.572;10.170;2022-09-09T00:48:05;843.47;;;767.03;;
50605;SDS011;36557;53.572;10.170;2022-09-09T00:56:23;858.38;;;777.30;;
50605;SDS011;36557;53.572;10.170;2022-09-09T01:01:46;856.53;;;782.08;;
50605;SDS011;36557;53.572;10.170;2022-09-09T01:04:13;802.70;;;733.65;;
50605;SDS011;36557;53.572;10.170;2022-09-09T01:06:50;848.15;;;772.78;;
50605;SDS011;36557;53.572;10.170;2022-09-09T01:09:26;784.80;;;721.83;;
50605;SDS011;36557;53.572;10.170;2022-09-09T01:14:43;802.10;;;738.00;;
50605;SDS011;36557;53.572;10.170;2022-09-09T01:17:20;885.92;;;802.63;;
50605;SDS011;36557;53.572;10.170;2022-09-09T01:23:03;884.45;;;800.00;;
50605;SDS011;36557;53.572;10.170;2022-09-09T01:28:57;774.70;;;713.20;;
50605;SDS011;36557;53.572;10.170;2022-09-09T01:31:26;860.78;;;782.45;;
50605;SDS011;36557;53.572;10.170;2022-09-09T01:34:14;783.83;;;719.70;;
50605;SDS011;36557;53.572;10.170;2022-09-09T01:36:44;774.83;;;712.97;;
50605;SDS011;36557;53.572;10.170;2022-09-09T01:39:15;810.97;;;744.50;;
50605;SDS011;36557;53.572;10.170;2022-09-09T01:41:41;875.47;;;799.90;;
50605;SDS011;36557;53.572;10.170;2022-09-09T01:44:08;834.55;;;763.47;;
50605;SDS011;36557;53.572;10.170;2022-09-09T01:46:35;842.72;;;772.20;;
50605;SDS011;36557;53.572;10.170;2022-09-09T01:49:00;785.83;;;722.58;;
50605;SDS011;36557;53.572;10.170;2022-09-09T01:51:30;830.08;;;760.13;;
50605;SDS011;36557;53.572;10.170;2022-09-09T01:53:56;850.70;;;780.42;;
50605;SDS011;36557;53.572;10.170;2022-09-09T01:59:11;852.33;;;782.47;;
50605;SDS011;36557;53.572;10.170;2022-09-09T02:01:56;800.05;;;735.70;;
50605;SDS011;36557;53.572;10.170;2022-09-09T02:04:30;862.20;;;787.47;;
50605;SDS011;36557;53.572;10.170;2022-09-09T02:12:44;794.00;;;730.17;;
50605;SDS011;36557;53.572;10.170;2022-09-09T02:15:17;789.60;;;726.22;;
50605;SDS011;36557;53.572;10.170;2022-09-09T02:17:56;849.97;;;778.60;;
50605;SDS011;36557;53.572;10.170;2022-09-09T02:20:23;766.60;;;704.90;;
50605;SDS011;36557;53.572;10.170;2022-09-09T02:22:52;845.85;;;774.72;;
50605;SDS011;36557;53.572;10.170;2022-09-09T02:25:20;857.60;;;785.70;;
50605;SDS011;36557;53.572;10.170;2022-09-09T02:27:48;805.28;;;739.85;;
50605;SDS011;36557;53.572;10.170;2022-09-09T02:30:16;863.20;;;789.63;;
50605;SDS011;36557;53.572;10.170;2022-09-09T02:32:42;813.83;;;745.58;;
50605;SDS011;36557;53.572;10.170;2022-09-09T02:35:15;790.38;;;724.63;;
50605;SDS011;36557;53.572;10.170;2022-09-09T02:37:45;789.10;;;725.95;;
50605;SDS011;36557;53.572;10.170;2022-09-09T02:40:11;846.42;;;774.78;;
50605;SDS011;36557;53.572;10.170;2022-09-09T02:42:43;787.38;;;724.42;;
50605;SDS011;36557;53.572;10.170;2022-09-09T02:45:15;806.60;;;737.75;;
50605;SDS011;36557;53.572;10.170;2022-09-09T02:50:22;898.92;;;819.75;;
50605;SDS011;36557;53.572;10.170;2022-09-09T02:53:07;807.97;;;742.42;;
50605;SDS011;36557;53.572;10.170;2022-09-09T02:58:14;832.58;;;763.55;;
50605;SDS011;36557;53.572;10.170;2022-09-09T03:00:48;799.42;;;734.28;;
50605;SDS011;36557;53.572;10.170;2022-09-09T03:03:15;817.08;;;748.88;;
50605;SDS011;36557;53.572;10.170;2022-09-09T03:05:42;808.92;;;743.13;;
50605;SDS011;36557;53.572;10.170;2022-09-09T03:08:08;787.88;;;723.72;;
50605;SDS011;36557;53.572;10.170;2022-09-09T03:10:34;787.30;;;724.78;;
50605;SDS011;36557;53.572;10.170;2022-09-09T03:13:01;842.22;;;773.78;;
50605;SDS011;36557;53.572;10.170;2022-09-09T03:15:30;846.58;;;778.08;;
50605;SDS011;36557;53.572;10.170;2022-09-09T03:17:57;839.88;;;771.90;;
50605;SDS011;36557;53.572;10.170;2022-09-09T03:20:27;798.67;;;735.13;;
50605;SDS011;36557;53.572;10.170;2022-09-09T03:22:54;817.33;;;751.67;;
50605;SDS011;36557;53.572;10.170;2022-09-09T03:25:21;808.45;;;743.58;;
50605;SDS011;36557;53.572;10.170;2022-09-09T03:27:51;802.83;;;738.75;;
50605;SDS011;36557;53.572;10.170;2022-09-09T03:30:19;801.38;;;737.85;;
50605;SDS011;36557;53.572;10.170;2022-09-09T03:32:46;836.33;;;770.92;;
50605;SDS011;36557;53.572;10.170;2022-09-09T03:35:11;813.92;;;750.85;;
50605;SDS011;36557;53.572;10.170;2022-09-09T03:37:37;794.72;;;732.65;;
50605;SDS011;36557;53.572;10.170;2022-09-09T03:40:04;785.15;;;723.35;;
50605;SDS011;36557;53.572;10.170;2022-09-09T03:42:30;766.50;;;705.20;;
50605;SDS011;36557;53.572;10.170;2022-09-09T03:44:56;811.95;;;748.08;;
50605;SDS011;36557;53.572;10.170;2022-09-09T03:47:22;770.13;;;710.47;;
50605;SDS011;36557;53.572;10.170;2022-09-09T03:49:48;779.42;;;718.22;;
50605;SDS011;36557;53.572;10.170;2022-09-09T03:52:14;756.00;;;698.30;;
50605;SDS011;36557;53.572;10.170;2022-09-09T03:54:41;764.13;;;705.53;;
50605;SDS011;36557;53.572;10.170;2022-09-09T03:57:07;793.92;;;731.97;;
50605;SDS011;36557;53.572;10.170;2022-09-09T03:59:36;798.08;;;734.55;;
50605;SDS011;36557;53.572;10.170;2022-09-09T04:02:03;776.88;;;715.00;;
50605;SDS011;36557;53.572;10.170;2022-09-09T04:04:29;764.42;;;705.03;;
50605;SDS011;36557;53.572;10.170;2022-09-09T04:06:55;771.05;;;711.10;;
50605;SDS011;36557;53.572;10.170;2022-09-09T04:09:20;775.40;;;713.40;;
50605;SDS011;36557;53.572;10.170;2022-09-09T04:11:46;804.03;;;741.40;;
50605;SDS011;36557;53.572;10.170;2022-09-09T04:14:12;787.30;;;726.08;;
50605;SDS011;36557;53.572;10.170;2022-09-09T04:16:38;777.08;;;714.50;;
50605;SDS011;36557;53.572;10.170;2022-09-09T04:19:04;764.90;;;704.45;;
50605;SDS011;36557;53.572;10.170;2022-09-09T04:21:31;771.53;;;712.72;;
50605;SDS011;36557;53.572;10.170;2022-09-09T04:23:57;764.10;;;705.22;;
50605;SDS011;36557;53.572;10.170;2022-09-09T04:26:23;767.17;;;706.50;;
50605;SDS011;36557;53.572;10.170;2022-09-09T04:28:49;779.33;;;718.08;;
50605;SDS011;36557;53.572;10.170;2022-09-09T04:31:16;752.65;;;693.63;;
50605;SDS011;36557;53.572;10.170;2022-09-09T04:33:44;763.53;;;705.38;;
50605;SDS011;36557;53.572;10.170;2022-09-09T04:36:11;745.83;;;689.80;;
50605;SDS011;36557;53.572;10.170;2022-09-09T04:38:37;790.88;;;730.92;;
50605;SDS011;36557;53.572;10.170;2022-09-09T04:41:03;777.05;;;717.13;;
50605;SDS011;36557;53.572;10.170;2022-09-09T04:43:29;799.65;;;737.38;;
50605;SDS011;36557;53.572;10.170;2022-09-09T04:45:56;772.60;;;713.30;;
50605;SDS011;36557;53.572;10.170;2022-09-09T04:48:22;775.97;;;717.30;;
50605;SDS011;36557;53.572;10.170;2022-09-09T04:50:58;762.78;;;704.75;;
50605;SDS011;36557;53.572;10.170;2022-09-09T04:53:30;766.42;;;707.60;;
50605;SDS011;36557;53.572;10.170;2022-09-09T04:56:06;797.08;;;733.63;;
50605;SDS011;36557;53.572;10.170;2022-09-09T04:58:36;788.63;;;726.83;;
50605;SDS011;36557;53.572;10.170;2022-09-09T05:01:07;771.90;;;710.38;;
50605;SDS011;36557;53.572;10.170;2022-09-09T05:03:35;790.03;;;727.13;;
50605;SDS011;36557;53.572;10.170;2022-09-09T05:06:07;808.88;;;744.97;;
50605;SDS011;36557;53.572;10.170;2022-09-09T05:08:36;790.50;;;728.08;;
50605;SDS011;36557;53.572;10.170;2022-09-09T05:11:02;813.28;;;746.75;;
50605;SDS011;36557;53.572;10.170;2022-09-09T05:13:29;786.10;;;723.53;;
50605;SDS011;36557;53.572;10.170;2022-09-09T05:15:56;782.42;;;722.80;;
50605;SDS011;36557;53.572;10.170;2022-09-09T05:18:22;776.60;;;715.53;;
50605;SDS011;36557;53.572;10.170;2022-09-09T05:20:48;770.00;;;711.30;;
50605;SDS011;36557;53.572;10.170;2022-09-09T05:23:16;768.92;;;709.25;;
50605;SDS011;36557;53.572;10.170;2022-09-09T05:25:42;765.97;;;707.75;;
50605;SDS011;36557;53.572;10.170;2022-09-09T05:28:08;770.05;;;711.25;;
50605;SDS011;36557;53.572;10.170;2022-09-09T05:30:34;764.45;;;704.83;;
50605;SDS011;36557;53.572;10.170;2022-09-09T05:33:00;793.88;;;731.95;;
50605;SDS011;36557;53.572;10.170;2022-09-09T05:35:26;793.70;;;731.47;;
50605;SDS011;36557;53.572;10.170;2022-09-09T05:37:52;797.70;;;734.55;;
50605;SDS011;36557;53.572;10.170;2022-09-09T05:40:18;795.10;;;732.08;;
50605;SDS011;36557;53.572;10.170;2022-09-09T05:42:43;784.92;;;723.80;;
50605;SDS011;36557;53.572;10.170;2022-09-09T05:45:09;801.42;;;736.42;;
50605;SDS011;36557;53.572;10.170;2022-09-09T05:47:35;806.47;;;740.75;;
50605;SDS011;36557;53.572;10.170;2022-09-09T05:50:02;815.22;;;748.85;;
50605;SDS011;36557;53.572;10.170;2022-09-09T05:52:29;824.13;;;757.72;;
50605;SDS011;36557;53.572;10.170;2022-09-09T05:54:55;846.72;;;776.70;;
50605;SDS011;36557;53.572;10.170;2022-09-09T05:57:22;817.15;;;751.15;;
50605;SDS011;36557;53.572;10.170;2022-09-09T05:59:47;830.45;;;762.55;;
50605;SDS011;36557;53.572;10.170;2022-09-09T06:02:14;807.00;;;742.85;;
50605;SDS011;36557;53.572;10.170;2022-09-09T06:04:40;838.22;;;769.67;;
50605;SDS011;36557;53.572;10.170;2022-09-09T06:07:06;846.35;;;776.25;;
50605;SDS011;36557;53.572;10.170;2022-09-09T06:09:32;874.53;;;800.95;;
50605;SDS011;36557;53.572;10.170;2022-09-09T06:11:58;844.08;;;772.60;;
50605;SDS011;36557;53.572;10.170;2022-09-09T06:14:23;864.20;;;792.40;;
50605;SDS011;36557;53.572;10.170;2022-09-09T06:16:50;839.58;;;771.20;;
50605;SDS011;36557;53.572;10.170;2022-09-09T06:19:16;821.53;;;755.97;;
50605;SDS011;36557;53.572;10.170;2022-09-09T06:21:42;866.72;;;794.50;;
50605;SDS011;36557;53.572;10.170;2022-09-09T06:24:09;904.65;;;827.45;;
50605;SDS011;36557;53.572;10.170;2022-09-09T06:26:37;850.67;;;780.35;;
50605;SDS011;36557;53.572;10.170;2022-09-09T06:29:07;853.28;;;780.83;;
50605;SDS011;36557;53.572;10.170;2022-09-09T06:31:34;842.78;;;775.65;;
50605;SDS011;36557;53.572;10.170;2022-09-09T06:34:02;843.50;;;776.45;;
50605;SDS011;36557;53.572;10.170;2022-09-09T06:36:34;803.58;;;741.72;;
50605;SDS011;36557;53.572;10.170;2022-09-09T06:39:02;832.83;;;766.47;;
50605;SDS011;36557;53.572;10.170;2022-09-09T06:41:29;818.20;;;755.22;;
50605;SDS011;36557;53.572;10.170;2022-09-09T06:43:57;814.20;;;748.17;;
50605;SDS011;36557;53.572;10.170;2022-09-09T06:46:23;816.67;;;752.00;;
50605;SDS011;36557;53.572;10.170;2022-09-09T06:48:54;730.67;;;674.30;;
50605;SDS011;36557;53.572;10.170;2022-09-09T06:51:24;792.88;;;728.03;;
50605;SDS011;36557;53.572;10.170;2022-09-09T06:53:53;818.90;;;751.63;;
50605;SDS011;36557;53.572;10.170;2022-09-09T06:56:26;771.28;;;709.55;;
50605;SDS011;36557;53.572;10.170;2022-09-09T06:58:57;836.60;;;766.10;;
50605;SDS011;36557;53.572;10.170;2022-09-09T07:01:26;765.75;;;699.05;;
50605;SDS011;36557;53.572;10.170;2022-09-09T07:03:55;971.72;;;875.30;;
50605;SDS011;36557;53.572;10.170;2022-09-09T07:06:34;1004.85;;;903.63;;
50605;SDS011;36557;53.572;10.170;2022-09-09T07:09:02;943.05;;;859.72;;
50605;SDS011;36557;53.572;10.170;2022-09-09T07:11:40;894.30;;;817.40;;
50605;SDS011;36557;53.572;10.170;2022-09-09T07:14:08;871.28;;;799.42;;
50605;SDS011;36557;53.572;10.170;2022-09-09T07:16:34;953.90;;;867.63;;
50605;SDS011;36557;53.572;10.170;2022-09-09T07:19:02;929.95;;;849.33;;
50605;SDS011;36557;53.572;10.170;2022-09-09T07:21:29;923.22;;;842.35;;
50605;SDS011;36557;53.572;10.170;2022-09-09T07:23:56;965.22;;;875.45;;
50605;SDS011;36557;53.572;10.170;2022-09-09T07:26:22;876.80;;;803.13;;
50605;SDS011;36557;53.572;10.170;2022-09-09T07:28:50;910.30;;;832.47;;
50605;SDS011;36557;53.572;10.170;2022-09-09T07:31:17;909.30;;;830.25;;
50605;SDS011;36557;53.572;10.170;2022-09-09T07:33:47;926.65;;;845.75;;
50605;SDS011;36557;53.572;10.170;2022-09-09T07:36:23;964.55;;;876.25;;
50605;SDS011;36557;53.572;10.170;2022-09-09T07:38:54;904.55;;;826.08;;
50605;SDS011;36557;53.572;10.170;2022-09-09T07:41:25;953.17;;;867.38;;
50605;SDS011;36557;53.572;10.170;2022-09-09T07:43:55;947.05;;;862.28;;
50605;SDS011;36557;53.572;10.170;2022-09-09T07:46:22;975.50;;;886.85;;
50605;SDS011;36557;53.572;10.170;2022-09-09T07:48:50;936.08;;;852.03;;
50605;SDS011;36557;53.572;10.170;2022-09-09T07:51:22;961.50;;;871.63;;
50605;SDS011;36557;53.572;10.170;2022-09-09T07:53:57;934.03;;;848.72;;
50605;SDS011;36557;53.572;10.170;2022-09-09T07:56:25;969.90;;;877.92;;
50605;SDS011;36557;53.572;10.170;2022-09-09T07:58:52;994.25;;;898.90;;
50605;SDS011;36557;53.572;10.170;2022-09-09T08:01:26;987.05;;;893.03;;
50605;SDS011;36557;53.572;10.170;2022-09-09T08:04:02;993.97;;;900.83;;
50605;SDS011;36557;53.572;10.170;2022-09-09T08:06:30;1007.03;;;907.20;;
50605;SDS011;36557;53.572;10.170;2022-09-09T08:08:58;1004.10;;;908.33;;
50605;SDS011;36557;53.572;10.170;2022-09-09T08:11:25;1012.70;;;911.88;;
50605;SDS011;36557;53.572;10.170;2022-09-09T08:13:52;985.17;;;889.72;;
50605;SDS011;36557;53.572;10.170;2022-09-09T08:16:22;958.00;;;871.30;;
50605;SDS011;36557;53.572;10.170;2022-09-09T08:18:50;949.30;;;865.05;;
50605;SDS011;36557;53.572;10.170;2022-09-09T08:21:21;960.88;;;874.03;;
50605;SDS011;36557;53.572;10.170;2022-09-09T08:23:50;945.17;;;860.38;;
50605;SDS011;36557;53.572;10.170;2022-09-09T08:26:30;933.05;;;849.70;;
50605;SDS011;36557;53.572;10.170;2022-09-09T08:29:00;899.47;;;820.55;;
50605;SDS011;36557;53.572;10.170;2022-09-09T08:31:29;931.28;;;848.17;;
50605;SDS011;36557;53.572;10.170;2022-09-09T08:33:56;927.53;;;843.35;;
50605;SDS011;36557;53.572;10.170;2022-09-09T08:36:24;917.83;;;839.63;;
50605;SDS011;36557;53.572;10.170;2022-09-09T08:38:53;957.00;;;869.90;;
50605;SDS011;36557;53.572;10.170;2022-09-09T08:43:52;914.08;;;836.33;;
50605;SDS011;36557;53.572;10.170;2022-09-09T08:50:02;862.58;;;787.75;;
50605;SDS011;36557;53.572;10.170;2022-09-09T08:53:00;871.42;;;795.40;;
50605;SDS011;36557;53.572;10.170;2022-09-09T09:01:02;886.67;;;807.88;;
50605;SDS011;36557;53.572;10.170;2022-09-09T09:09:39;885.70;;;806.83;;
50605;SDS011;36557;53.572;10.170;2022-09-09T09:12:20;887.55;;;811.63;;
50605;SDS011;36557;53.572;10.170;2022-09-09T09:14:49;886.13;;;807.97;;
50605;SDS011;36557;53.572;10.170;2022-09-09T09:17:21;880.40;;;805.30;;
50605;SDS011;36557;53.572;10.170;2022-09-09T09:19:50;864.63;;;792.70;;
50605;SDS011;36557;53.572;10.170;2022-09-09T09:22:24;808.45;;;744.00;;
50605;SDS011;36557;53.572;10.170;2022-09-09T09:30:18;833.45;;;766.63;;
50605;SDS011;36557;53.572;10.170;2022-09-09T09:32:54;839.50;;;770.83;;
50605;SDS011;36557;53.572;10.170;2022-09-09T09:35:23;797.28;;;733.63;;
50605;SDS011;36557;53.572;10.170;2022-09-09T09:37:49;818.90;;;752.20;;
50605;SDS011;36557;53.572;10.170;2022-09-09T09:40:19;739.10;;;684.40;;
50605;SDS011;36557;53.572;10.170;2022-09-09T09:42:53;706.58;;;655.03;;
50605;SDS011;36557;53.572;10.170;2022-09-09T09:45:35;759.13;;;701.08;;
50605;SDS011;36557;53.572;10.170;2022-09-09T09:48:10;762.03;;;702.33;;
50605;SDS011;36557;53.572;10.170;2022-09-09T09:50:46;748.40;;;692.15;;
50605;SDS011;36557;53.572;10.170;2022-09-09T09:53:19;802.30;;;738.42;;
50605;SDS011;36557;53.572;10.170;2022-09-09T09:58:24;726.58;;;672.03;;
50605;SDS011;36557;53.572;10.170;2022-09-09T10:01:28;673.88;;;625.33;;
50605;SDS011;36557;53.572;10.170;2022-09-09T10:03:59;809.42;;;744.55;;
50605;SDS011;36557;53.572;10.170;2022-09-09T10:06:33;646.00;;;599.45;;
50605;SDS011;36557;53.572;10.170;2022-09-09T10:09:03;741.33;;;682.47;;
50605;SDS011;36557;53.572;10.170;2022-09-09T10:11:50;724.92;;;666.72;;
50605;SDS011;36557;53.572;10.170;2022-09-09T10:14:34;686.53;;;634.50;;
50605;SDS011;36557;53.572;10.170;2022-09-09T10:28:25;702.97;;;651.55;;
50605;SDS011;36557;53.572;10.170;2022-09-09T10:36:29;683.60;;;632.38;;
50605;SDS011;36557;53.572;10.170;2022-09-09T10:38:59;688.33;;;636.40;;
50605;SDS011;36557;53.572;10.170;2022-09-09T10:44:18;604.75;;;557.88;;
50605;SDS011;36557;53.572;10.170;2022-09-09T10:47:21;729.17;;;667.65;;
50605;SDS011;36557;53.572;10.170;2022-09-09T10:55:59;708.75;;;651.78;;
50605;SDS011;36557;53.572;10.170;2022-09-09T11:01:23;723.78;;;665.08;;
50605;SDS011;36557;53.572;10.170;2022-09-09T11:03:52;736.65;;;676.47;;
50605;SDS011;36557;53.572;10.170;2022-09-09T11:06:29;752.38;;;689.88;;
50605;SDS011;36557;53.572;10.170;2022-09-09T11:09:01;721.20;;;663.22;;
50605;SDS011;36557;53.572;10.170;2022-09-09T11:11:50;731.72;;;673.15;;
50605;SDS011;36557;53.572;10.170;2022-09-09T11:14:30;615.92;;;568.13;;
50605;SDS011;36557;53.572;10.170;2022-09-09T11:17:15;687.28;;;632.63;;
50605;SDS011;36557;53.572;10.170;2022-09-09T11:19:47;745.97;;;685.33;;
50605;SDS011;36557;53.572;10.170;2022-09-09T11:22:33;831.88;;;760.47;;
50605;SDS011;36557;53.572;10.170;2022-09-09T11:41:45;628.38;;;579.45;;
50605;SDS011;36557;53.572;10.170;2022-09-09T11:44:11;773.00;;;708.63;;
50605;SDS011;36557;53.572;10.170;2022-09-09T11:46:41;700.80;;;644.58;;
50605;SDS011;36557;53.572;10.170;2022-09-09T11:52:24;827.42;;;754.20;;
50605;SDS011;36557;53.572;10.170;2022-09-09T11:55:08;709.25;;;652.20;;
50605;SDS011;36557;53.572;10.170;2022-09-09T11:58:37;707.10;;;650.22;;
50605;SDS011;36557;53.572;10.170;2022-09-09T12:03:08;644.15;;;593.80;;
50605;SDS011;36557;53.572;10.170;2022-09-09T12:06:13;742.65;;;682.42;;
50605;SDS011;36557;53.572;10.170;2022-09-09T12:08:46;680.42;;;626.00;;
50605;SDS011;36557;53.572;10.170;2022-09-09T12:11:28;671.60;;;617.78;;
50605;SDS011;36557;53.572;10.170;2022-09-09T12:13:56;679.67;;;626.30;;
50605;SDS011;36557;53.572;10.170;2022-09-09T12:16:34;701.88;;;645.50;;
50605;SDS011;36557;53.572;10.170;2022-09-09T12:19:06;744.97;;;680.60;;
50605;SDS011;36557;53.572;10.170;2022-09-09T12:22:14;731.00;;;671.40;;
50605;SDS011;36557;53.572;10.170;2022-09-09T12:28:02;720.90;;;661.35;;
50605;SDS011;36557;53.572;10.170;2022-09-09T12:33:16;682.13;;;629.05;;
50605;SDS011;36557;53.572;10.170;2022-09-09T12:35:44;646.17;;;595.17;;
50605;SDS011;36557;53.572;10.170;2022-09-09T12:38:17;664.13;;;612.42;;
50605;SDS011;36557;53.572;10.170;2022-09-09T12:40:55;599.80;;;553.08;;
50605;SDS011;36557;53.572;10.170;2022-09-09T12:43:24;601.55;;;555.72;;
50605;SDS011;36557;53.572;10.170;2022-09-09T12:45:51;648.92;;;598.63;;
50605;SDS011;36557;53.572;10.170;2022-09-09T12:50:56;573.53;;;530.95;;
50605;SDS011;36557;53.572;10.170;2022-09-09T12:53:23;603.15;;;558.83;;
50605;SDS011;36557;53.572;10.170;2022-09-09T12:56:04;584.85;;;542.63;;
50605;SDS011;36557;53.572;10.170;2022-09-09T12:58:33;595.38;;;551.45;;
50605;SDS011;36557;53.572;10.170;2022-09-09T13:01:01;598.60;;;554.25;;
50605;SDS011;36557;53.572;10.170;2022-09-09T13:03:31;637.08;;;588.08;;
50605;SDS011;36557;53.572;10.170;2022-09-09T13:05:59;627.20;;;580.53;;
50605;SDS011;36557;53.572;10.170;2022-09-09T13:08:37;622.22;;;576.00;;
50605;SDS011;36557;53.572;10.170;2022-09-09T13:11:04;640.78;;;592.85;;
50605;SDS011;36557;53.572;10.170;2022-09-09T13:13:35;636.08;;;590.33;;
50605;SDS011;36557;53.572;10.170;2022-09-09T13:16:03;619.67;;;577.50;;
50605;SDS011;36557;53.572;10.170;2022-09-09T13:18:34;660.65;;;613.28;;
50605;SDS011;36557;53.572;10.170;2022-09-09T13:21:03;620.42;;;577.40;;
50605;SDS011;36557;53.572;10.170;2022-09-09T13:23:30;662.47;;;614.97;;
50605;SDS011;36557;53.572;10.170;2022-09-09T13:26:19;623.88;;;581.58;;
50605;SDS011;36557;53.572;10.170;2022-09-09T13:28:47;644.65;;;599.00;;
50605;SDS011;36557;53.572;10.170;2022-09-09T13:31:21;656.33;;;610.45;;
50605;SDS011;36557;53.572;10.170;2022-09-09T13:33:49;666.80;;;619.40;;
50605;SDS011;36557;53.572;10.170;2022-09-09T13:36:15;627.03;;;582.47;;
50605;SDS011;36557;53.572;10.170;2022-09-09T13:41:19;646.38;;;600.50;;
50605;SDS011;36557;53.572;10.170;2022-09-09T13:43:46;692.72;;;642.50;;
50605;SDS011;36557;53.572;10.170;2022-09-09T13:48:58;674.63;;;626.83;;
50605;SDS011;36557;53.572;10.170;2022-09-09T13:51:34;660.47;;;612.35;;
50605;SDS011;36557;53.572;10.170;2022-09-09T13:54:02;766.08;;;708.80;;
50605;SDS011;36557;53.572;10.170;2022-09-09T13:56:32;678.10;;;629.28;;
50605;SDS011;36557;53.572;10.170;2022-09-09T13:58:58;731.03;;;678.75;;
50605;SDS011;36557;53.572;10.170;2022-09-09T14:01:24;705.42;;;654.90;;
50605;SDS011;36557;53.572;10.170;2022-09-09T14:03:50;724.70;;;671.38;;
50605;SDS011;36557;53.572;10.170;2022-09-09T14:06:16;754.67;;;698.40;;
50605;SDS011;36557;53.572;10.170;2022-09-09T14:08:43;712.85;;;661.72;;
50605;SDS011;36557;53.572;10.170;2022-09-09T14:11:11;742.78;;;690.05;;
50605;SDS011;36557;53.572;10.170;2022-09-09T14:13:38;757.33;;;700.28;;
50605;SDS011;36557;53.572;10.170;2022-09-09T14:16:04;751.15;;;698.65;;
50605;SDS011;36557;53.572;10.170;2022-09-09T14:18:29;752.65;;;697.80;;
50605;SDS011;36557;53.572;10.170;2022-09-09T14:20:55;764.22;;;708.75;;
50605;SDS011;36557;53.572;10.170;2022-09-09T14:23:22;753.15;;;698.70;;
50605;SDS011;36557;53.572;10.170;2022-09-09T14:25:49;803.17;;;742.92;;
50605;SDS011;36557;53.572;10.170;2022-09-09T14:28:15;797.17;;;736.17;;
50605;SDS011;36557;53.572;10.170;2022-09-09T14:30:41;807.03;;;745.00;;
50605;SDS011;36557;53.572;10.170;2022-09-09T14:33:10;788.00;;;727.85;;
50605;SDS011;36557;53.572;10.170;2022-09-09T14:35:37;861.70;;;790.50;;
50605;SDS011;36557;53.572;10.170;2022-09-09T14:38:03;850.85;;;781.72;;
50605;SDS011;36557;53.572;10.170;2022-09-09T14:40:30;826.60;;;761.03;;
50605;SDS011;36557;53.572;10.170;2022-09-09T14:42:56;876.80;;;803.30;;
50605;SDS011;36557;53.572;10.170;2022-09-09T14:45:23;896.50;;;818.63;;
50605;SDS011;36557;53.572;10.170;2022-09-09T14:47:50;921.22;;;840.22;;
50605;SDS011;36557;53.572;10.170;2022-09-09T14:50:17;900.67;;;821.80;;
50605;SDS011;36557;53.572;10.170;2022-09-09T14:52:43;958.90;;;865.25;;
50605;SDS011;36557;53.572;10.170;2022-09-09T14:55:09;929.33;;;845.17;;
50605;SDS011;36557;53.572;10.170;2022-09-09T14:57:34;936.08;;;853.33;;
50605;SDS011;36557;53.572;10.170;2022-09-09T15:00:01;959.78;;;868.95;;
50605;SDS011;36557;53.572;10.170;2022-09-09T15:02:30;882.90;;;806.78;;
50605;SDS011;36557;53.572;10.170;2022-09-09T15:04:56;913.03;;;835.90;;
50605;SDS011;36557;53.572;10.170;2022-09-09T15:07:23;832.22;;;767.45;;
50605;SDS011;36557;53.572;10.170;2022-09-09T15:09:49;875.80;;;804.60;;
50605;SDS011;36557;53.572;10.170;2022-09-09T15:12:15;903.88;;;829.28;;
50605;SDS011;36557;53.572;10.170;2022-09-09T15:14:43;866.38;;;795.70;;
50605;SDS011;36557;53.572;10.170;2022-09-09T15:17:10;902.53;;;826.67;;
50605;SDS011;36557;53.572;10.170;2022-09-09T15:19:36;851.15;;;782.97;;
50605;SDS011;36557;53.572;10.170;2022-09-09T15:22:02;908.80;;;833.20;;
50605;SDS011;36557;53.572;10.170;2022-09-09T15:24:32;866.25;;;795.78;;
50605;SDS011;36557;53.572;10.170;2022-09-09T15:26:59;836.67;;;770.03;;
50605;SDS011;36557;53.572;10.170;2022-09-09T15:29:25;920.40;;;841.60;;
50605;SDS011;36557;53.572;10.170;2022-09-09T15:31:52;858.50;;;791.15;;
50605;SDS011;36557;53.572;10.170;2022-09-09T15:34:19;845.60;;;778.80;;
50605;SDS011;36557;53.572;10.170;2022-09-09T15:36:45;891.15;;;816.72;;
50605;SDS011;36557;53.572;10.170;2022-09-09T15:39:12;882.25;;;809.88;;
50605;SDS011;36557;53.572;10.170;2022-09-09T15:41:40;881.58;;;810.05;;
50605;SDS011;36557;53.572;10.170;2022-09-09T15:44:07;908.92;;;833.13;;
50605;SDS011;36557;53.572;10.170;2022-09-09T15:46:38;857.40;;;788.88;;
50605;SDS011;36557;53.572;10.170;2022-09-09T15:49:10;874.08;;;804.47;;
50605;SDS011;36557;53.572;10.170;2022-09-09T15:51:38;910.47;;;834.25;;
50605;SDS011;36557;53.572;10.170;2022-09-09T15:54:08;856.08;;;789.08;;
50605;SDS011;36557;53.572;10.170;2022-09-09T15:56:37;904.22;;;828.10;;
50605;SDS011;36557;53.572;10.170;2022-09-09T15:59:02;879.08;;;806.85;;
50605;SDS011;36557;53.572;10.170;2022-09-09T16:04:01;912.55;;;834.75;;
50605;SDS011;36557;53.572;10.170;2022-09-09T16:06:28;868.05;;;798.53;;
50605;SDS011;36557;53.572;10.170;2022-09-09T16:08:55;849.97;;;781.53;;
50605;SDS011;36557;53.572;10.170;2022-09-09T16:11:22;905.33;;;829.10;;
50605;SDS011;36557;53.572;10.170;2022-09-09T16:13:56;848.05;;;780.45;;
50605;SDS011;36557;53.572;10.170;2022-09-09T16:16:23;888.05;;;816.35;;
50605;SDS011;36557;53.572;10.170;2022-09-09T16:18:52;908.83;;;833.65;;